Time;durP1;ratioP1;P1;durP2;ratioP2;P2;SDS_P1;SDS_P2;PMS_P1;PMS_P2;Temp;Humidity;BMP_temperature;BMP_pressure;BME280_temperature;BME280_humidity;BME280_pressure;Samples;Min_cycle;Max_cycle;Signal;HPM_P1;HPM_P2
2023/09/29 00:00:27;;;;;;;14.33;9.03;;;;;;;12.81;100.00;101000.13;1497372;87;22217;-91
2023/09/29 00:02:55;;;;;;;17.90;9.93;;;;;;;12.77;100.00;101004.88;1485905;87;21632;-91
2023/09/29 00:05:22;;;;;;;14.63;8.60;;;;;;;12.72;100.00;101012.98;1484185;87;22210;-89
2023/09/29 00:07:51;;;;;;;13.30;9.63;;;;;;;12.64;100.00;101009.22;1494630;87;21367;-91
2023/09/29 00:10:17;;;;;;;9.03;8.13;;;;;;;12.63;100.00;101010.72;1487885;87;21470;-91
2023/09/29 00:12:45;;;;;;;12.20;8.47;;;;;;;12.58;100.00;101009.81;1484173;87;22409;-88
2023/09/29 00:15:11;;;;;;;14.23;8.63;;;;;;;12.56;100.00;100999.82;1488948;87;21337;-88
2023/09/29 00:17:38;;;;;;;14.73;8.07;;;;;;;12.54;100.00;101008.41;1485590;87;21595;-90
2023/09/29 00:20:24;;;;;;;15.77;10.13;;;;;;;12.51;100.00;101006.05;1485303;87;21389;-85
2023/09/29 00:22:55;;;;;;;18.10;10.70;;;;;;;12.52;100.00;101006.91;1487941;87;21396;-86
2023/09/29 00:25:23;;;;;;;20.35;10.18;;;;;;;12.49;100.00;101004.06;1487078;87;21411;-83
2023/09/29 00:27:50;;;;;;;13.73;10.30;;;;;;;12.46;100.00;101000.83;1477778;87;21396;-84
2023/09/29 00:30:17;;;;;;;16.97;10.37;;;;;;;12.41;100.00;101001.29;1490352;87;22195;-85
2023/09/29 00:32:47;;;;;;;13.23;9.60;;;;;;;12.37;100.00;100998.56;1484674;87;21301;-85
2023/09/29 00:35:24;;;;;;;17.40;9.10;;;;;;;12.35;100.00;100999.22;1491661;87;21456;-86
2023/09/29 00:37:44;;;;;;;15.88;9.83;;;;;;;12.37;100.00;100989.27;1483298;87;22696;-85
2023/09/29 00:40:14;;;;;;;18.97;11.60;;;;;;;12.38;100.00;100994.45;1496400;87;21367;-85
2023/09/29 00:42:43;;;;;;;14.83;9.65;;;;;;;12.38;100.00;100996.27;1485615;87;22290;-89
2023/09/29 00:45:10;;;;;;;21.07;9.90;;;;;;;12.36;100.00;100992.92;1484673;87;21496;-88
2023/09/29 00:47:38;;;;;;;15.90;9.87;;;;;;;12.36;100.00;101007.52;1491404;87;21641;-89
2023/09/29 00:50:09;;;;;;;12.67;10.50;;;;;;;12.31;100.00;101006.61;1482238;87;22269;-89
2023/09/29 00:52:38;;;;;;;;;;;;;;;12.24;100.00;101000.22;1492214;87;21846;-90
2023/09/29 00:55:13;;;;;;;13.73;9.70;;;;;;;12.15;100.00;100997.95;1487147;87;20321;-90
2023/09/29 00:57:45;;;;;;;20.00;9.83;;;;;;;12.08;100.00;100995.50;1488340;87;21375;-90
2023/09/29 01:00:30;;;;;;;20.37;10.00;;;;;;;12.07;100.00;100997.82;1481611;87;21382;-89
2023/09/29 01:02:48;;;;;;;22.57;10.13;;;;;;;12.09;100.00;101001.18;1482494;87;21410;-90
2023/09/29 01:05:15;;;;;;;15.53;8.53;;;;;;;12.13;100.00;101008.35;1487406;87;22217;-90
2023/09/29 01:07:43;;;;;;;12.83;8.87;;;;;;;12.14;100.00;101009.55;1485592;87;22373;-88
2023/09/29 01:10:15;;;;;;;22.17;9.10;;;;;;;12.14;100.00;101010.02;1480447;87;21591;-90
2023/09/29 01:12:42;;;;;;;13.63;9.17;;;;;;;12.12;100.00;101004.87;1483590;87;21375;-87
2023/09/29 01:15:17;;;;;;;14.50;9.73;;;;;;;12.14;100.00;101004.24;1487389;87;21404;-90
2023/09/29 01:17:43;;;;;;;22.83;10.90;;;;;;;12.15;100.00;100998.44;1475977;87;21522;-90
2023/09/29 01:20:18;;;;;;;20.00;12.20;;;;;;;12.16;100.00;100998.28;1465018;87;22371;-90
2023/09/29 01:22:48;;;;;;;20.57;11.93;;;;;;;12.15;100.00;100998.44;1488846;87;21389;-88
2023/09/29 01:25:17;;;;;;;20.52;11.68;;;;;;;12.15;100.00;100995.30;1478985;87;21561;-87
2023/09/29 01:27:44;;;;;;;15.83;10.80;;;;;;;12.16;100.00;101000.94;1458736;87;21433;-87
2023/09/29 01:30:13;;;;;;;22.80;10.87;;;;;;;12.15;100.00;100996.63;1485016;87;22240;-85
2023/09/29 01:32:42;;;;;;;18.30;10.97;;;;;;;12.15;100.00;100993.97;1481819;87;21390;-86
2023/09/29 01:35:15;;;;;;;21.47;10.30;;;;;;;12.18;100.00;100997.66;1491792;87;21710;-83
2023/09/29 01:37:42;;;;;;;15.47;11.10;;;;;;;12.18;100.00;100997.66;1487536;87;21492;-84
2023/09/29 01:40:10;;;;;;;19.00;10.27;;;;;;;12.22;100.00;100998.69;1485829;87;22438;-84
2023/09/29 01:43:11;;;;;;;21.17;11.63;;;;;;;12.22;100.00;101005.33;1491925;87;21359;-85
2023/09/29 01:45:38;;;;;;;20.72;12.03;;;;;;;12.22;100.00;100998.69;1492347;87;21397;-86
2023/09/29 01:48:05;;;;;;;19.13;12.10;;;;;;;12.16;100.00;101000.10;1490423;87;22361;-86
2023/09/29 01:50:32;;;;;;;19.87;12.03;;;;;;;12.13;100.00;101002.55;1485207;87;21338;-86
2023/09/29 01:52:59;;;;;;;18.50;11.60;;;;;;;12.12;100.00;100998.73;1484559;87;21508;-86
2023/09/29 01:55:28;;;;;;;17.30;10.80;;;;;;;12.11;100.00;100991.73;1489316;87;21529;-85
2023/09/29 01:57:54;;;;;;;27.20;11.53;;;;;;;12.10;100.00;100991.39;1490141;87;21492;-88
2023/09/29 02:00:24;;;;;;;15.47;10.60;;;;;;;12.10;100.00;100996.20;1486980;87;22373;-89
2023/09/29 02:02:53;;;;;;;18.33;11.30;;;;;;;12.12;100.00;100994.26;1477527;87;21455;-85
2023/09/29 02:05:20;;;;;;;19.60;10.33;;;;;;;12.15;100.00;100995.30;1483930;87;21471;-85
2023/09/29 02:07:48;;;;;;;23.27;11.93;;;;;;;12.18;100.00;100992.84;1477217;87;21589;-84
2023/09/29 02:10:19;;;;;;;17.90;12.37;;;;;;;12.18;100.00;100997.66;1483546;87;21390;-85
2023/09/29 02:12:58;;;;;;;24.45;11.90;;;;;;;12.15;100.00;100993.97;1480896;87;21427;-85
2023/09/29 02:15:26;;;;;;;17.17;11.07;;;;;;;12.12;100.00;100996.91;1488787;87;21425;-84
2023/09/29 02:17:53;;;;;;;23.43;13.83;;;;;;;12.10;100.00;100994.05;1481482;87;21537;-84
2023/09/29 02:20:28;;;;;;;21.83;12.67;;;;;;;12.09;100.00;100998.53;1487248;87;21441;-84
2023/09/29 02:22:48;;;;;;;17.00;12.03;;;;;;;12.10;100.00;100998.86;1489565;87;22365;-85
2023/09/29 02:25:17;;;;;;;25.37;11.77;;;;;;;12.10;100.00;100997.53;1480744;87;21440;-84
2023/09/29 02:27:43;;;;;;;21.10;11.57;;;;;;;12.11;100.00;100993.92;1485828;87;22343;-85
2023/09/29 02:30:11;;;;;;;18.27;12.10;;;;;;;12.08;100.00;100990.20;1487068;87;21448;-83
2023/09/29 02:32:39;;;;;;;27.17;14.43;;;;;;;12.08;100.00;100998.16;1483308;87;21411;-82
2023/09/29 02:35:05;;;;;;;20.83;12.90;;;;;;;12.05;100.00;100995.80;1459888;87;21561;-83
2023/09/29 02:37:32;;;;;;;16.07;12.57;;;;;;;12.04;100.00;100999.44;1478746;87;21551;-81
2023/09/29 02:39:58;;;;;;;16.40;11.50;;;;;;;12.03;100.00;101003.08;1487804;87;21470;-82
2023/09/29 02:42:25;;;;;;;18.17;10.77;;;;;;;12.02;100.00;101003.21;1482667;87;21603;-83
2023/09/29 02:44:52;;;;;;;18.13;10.97;;;;;;;12.00;100.00;101003.37;1484706;87;21389;-82
2023/09/29 02:47:18;;;;;;;13.40;10.80;;;;;;;11.97;100.00;101006.31;1491398;87;21382;-83
2023/09/29 02:49:44;;;;;;;14.33;9.90;;;;;;;11.97;100.00;101008.96;1494073;87;22894;-81
2023/09/29 02:52:11;;;;;;;19.07;11.13;;;;;;;11.99;100.00;101009.63;1487637;87;21897;-83
2023/09/29 02:54:39;;;;;;;15.67;10.27;;;;;;;12.00;100.00;101006.02;1489665;87;22438;-82
2023/09/29 02:57:05;;;;;;;19.70;11.03;;;;;;;11.99;100.00;101001.67;1479682;87;21322;-82
2023/09/29 02:59:33;;;;;;;16.57;11.23;;;;;;;11.96;100.00;101008.09;1493378;87;21604;-83
2023/09/29 03:02:03;;;;;;;20.50;11.60;;;;;;;11.96;100.00;101008.59;1485366;87;21345;-87
2023/09/29 03:04:30;;;;;;;25.20;11.97;;;;;;;11.96;100.00;101010.75;1486307;87;21706;-88
2023/09/29 03:06:59;;;;;;;19.53;11.93;;;;;;;11.94;100.00;101006.59;1484846;87;22335;-88
2023/09/29 03:09:29;;;;;;;18.97;11.70;;;;;;;11.95;100.00;101008.26;1488518;87;22660;-88
2023/09/29 03:11:54;;;;;;;19.63;12.13;;;;;;;11.95;100.00;101014.39;1487359;87;21718;-85
2023/09/29 03:14:21;;;;;;;27.07;12.10;;;;;;;11.94;100.00;101011.41;1482573;87;21322;-88
2023/09/29 03:16:47;;;;;;;22.90;11.40;;;;;;;11.94;100.00;101014.55;1479879;87;21603;-87
2023/09/29 03:19:13;;;;;;;17.77;11.57;;;;;;;11.95;100.00;101014.89;1486301;87;21434;-87
2023/09/29 03:21:39;;;;;;;18.17;10.50;;;;;;;11.94;100.00;101011.41;1468968;87;21396;-86
2023/09/29 03:24:08;;;;;;;22.20;10.97;;;;;;;11.93;100.00;101015.02;1479380;87;21403;-85
2023/09/29 03:26:34;;;;;;;20.33;12.33;;;;;;;11.90;100.00;101007.84;1484227;87;21507;-87
2023/09/29 03:29:00;;;;;;;25.40;12.77;;;;;;;11.89;100.00;101011.48;1484366;87;22313;-87
2023/09/29 03:31:27;;;;;;;18.73;12.97;;;;;;;11.89;100.00;101010.16;1475254;87;21382;-86
2023/09/29 03:33:53;;;;;;;20.47;12.00;;;;;;;11.88;100.00;101011.11;1486592;87;21570;-86
2023/09/29 03:36:23;;;;;;;21.77;11.77;;;;;;;11.87;100.00;101015.59;1482802;87;21366;-85
2023/09/29 03:38:50;;;;;;;26.52;12.18;;;;;;;11.85;100.00;101014.02;1467694;87;21563;-85
2023/09/29 03:41:16;;;;;;;26.17;12.20;;;;;;;11.86;100.00;101019.72;1484895;87;22319;-87
2023/09/29 03:43:42;;;;;;;19.80;12.83;;;;;;;11.85;100.00;101015.34;1482030;87;21567;-86
2023/09/29 03:46:20;;;;;;;22.40;11.30;;;;;;;11.85;100.00;101023.30;1489264;87;21345;-86
2023/09/29 03:48:47;;;;;;;20.33;11.87;;;;;;;11.83;100.00;101018.66;1482965;87;21521;-87
2023/09/29 03:51:24;;;;;;;24.13;13.13;;;;;;;11.84;100.00;101026.95;1480275;87;21493;-87
2023/09/29 03:53:53;;;;;;;20.97;12.63;;;;;;;11.83;100.00;101022.63;1483214;87;21456;-86
2023/09/29 03:56:23;;;;;;;19.90;13.10;;;;;;;11.80;100.00;101027.72;1478284;87;21419;-88
2023/09/29 03:58:48;;;;;;;25.77;13.30;;;;;;;11.77;100.00;101024.49;1497094;87;21566;-87
2023/09/29 04:01:15;;;;;;;22.90;11.80;;;;;;;11.74;100.00;101025.14;1482850;87;21412;-87
2023/09/29 04:03:42;;;;;;;17.07;11.20;;;;;;;11.71;100.00;101025.42;1463922;87;22497;-89
2023/09/29 04:06:09;;;;;;;22.07;11.43;;;;;;;11.66;100.00;101025.50;1485067;87;22586;-87
2023/09/29 04:08:36;;;;;;;17.93;10.97;;;;;;;11.62;100.00;101022.27;1489987;87;22438;-89
2023/09/29 04:11:03;;;;;;;20.93;11.00;;;;;;;11.62;100.00;101023.59;1482466;87;21470;-89
2023/09/29 04:13:31;;;;;;;21.70;12.40;;;;;;;11.66;100.00;101025.00;1487601;87;21359;-89
2023/09/29 04:15:59;;;;;;;22.57;13.97;;;;;;;11.72;100.00;101026.26;1477937;87;22477;-90
2023/09/29 04:18:25;;;;;;;16.03;10.53;;;;;;;11.75;100.00;101020.67;1485841;87;21381;-88
2023/09/29 04:20:51;;;;;;;19.13;12.33;;;;;;;11.78;100.00;101021.72;1487072;87;21323;-89
2023/09/29 04:23:19;;;;;;;19.03;11.60;;;;;;;11.81;100.00;101026.73;1481394;87;21447;-89
2023/09/29 04:25:46;;;;;;;24.13;12.37;;;;;;;11.80;100.00;101026.89;1479982;87;21418;-85
2023/09/29 04:28:14;;;;;;;25.23;12.00;;;;;;;11.77;100.00;101024.49;1471699;87;21397;-84
2023/09/29 04:30:41;;;;;;;20.63;11.90;;;;;;;11.72;100.00;101023.61;1480746;87;21367;-83
2023/09/29 04:33:07;;;;;;;19.70;11.20;;;;;;;11.68;100.00;101022.20;1495859;87;22158;-85
2023/09/29 04:35:34;;;;;;;17.20;11.40;;;;;;;11.66;100.00;101025.00;1481359;87;22380;-85
2023/09/29 04:38:01;;;;;;;17.03;10.90;;;;;;;11.66;100.00;101022.35;1492143;87;21367;-85
2023/09/29 04:40:28;;;;;;;20.07;11.97;;;;;;;11.69;100.00;101023.39;1483381;87;21518;-85
2023/09/29 04:42:55;;;;;;;14.90;10.20;;;;;;;11.70;100.00;101018.43;1485737;87;21519;-84
2023/09/29 04:45:21;;;;;;;15.73;11.80;;;;;;;11.69;100.00;101022.07;1483225;87;21389;-85
2023/09/29 04:47:47;;;;;;;20.00;12.03;;;;;;;11.68;100.00;101027.03;1486122;87;21389;-86
2023/09/29 04:50:14;;;;;;;25.63;13.27;;;;;;;11.69;100.00;101027.37;1486824;87;21507;-83
2023/09/29 04:52:40;;;;;;;17.67;12.30;;;;;;;11.71;100.00;101024.59;1484458;87;21374;-85
2023/09/29 04:55:07;;;;;;;22.83;13.07;;;;;;;11.71;100.00;101021.95;1480550;87;21530;-89
2023/09/29 04:57:33;;;;;;;27.70;11.77;;;;;;;11.71;100.00;101025.42;1488646;87;21374;-87
2023/09/29 05:00:00;;;;;;;32.90;12.43;;;;;;;11.72;100.00;101029.74;1483483;87;22403;-91
2023/09/29 05:02:29;;;;;;;33.50;11.67;;;;;;;11.77;100.00;101028.01;1460477;87;21404;-90
2023/09/29 05:04:54;;;;;;;22.20;10.70;;;;;;;11.81;100.00;101032.53;1494925;87;21448;-91
2023/09/29 05:07:20;;;;;;;19.07;11.17;;;;;;;11.84;100.00;101032.25;1483049;87;21374;-89
2023/09/29 05:09:46;;;;;;;45.77;14.17;;;;;;;11.88;100.00;101031.01;1484866;87;21464;-86
2023/09/29 05:12:12;;;;;;;21.37;12.50;;;;;;;11.92;100.00;101022.64;1483304;87;21622;-91
2023/09/29 05:14:40;;;;;;;17.73;13.27;;;;;;;11.99;100.00;101030.86;1494459;87;21345;-89
2023/09/29 05:17:07;;;;;;;22.33;12.27;;;;;;;12.02;100.00;101031.06;1481370;87;21404;-90
2023/09/29 05:19:33;;;;;;;19.27;11.97;;;;;;;12.02;100.00;101027.91;1461571;87;21517;-91
2023/09/29 05:22:00;;;;;;;22.50;12.20;;;;;;;12.05;100.00;101023.66;1485008;87;21554;-87
2023/09/29 05:24:26;;;;;;;22.43;11.17;;;;;;;12.08;100.00;101031.33;1495018;87;21389;-89
2023/09/29 05:26:53;;;;;;;17.07;11.43;;;;;;;12.15;100.00;101033.77;1489033;87;21522;-91
2023/09/29 05:29:19;;;;;;;21.00;11.50;;;;;;;12.21;100.00;101033.69;1477362;87;21389;-85
2023/09/29 05:31:45;;;;;;;18.10;11.77;;;;;;;12.28;100.00;101037.92;1485543;87;22336;-86
2023/09/29 05:34:12;;;;;;;18.23;11.30;;;;;;;12.37;100.00;101037.91;1489065;87;21316;-86
2023/09/29 05:36:38;;;;;;;24.57;12.60;;;;;;;12.47;100.00;101045.84;1485396;87;21481;-85
2023/09/29 05:39:04;;;;;;;20.53;12.00;;;;;;;12.53;100.00;101046.58;1466333;87;21353;-86
2023/09/29 05:41:31;;;;;;;30.47;12.67;;;;;;;12.58;100.00;101040.84;1487039;87;21511;-85
2023/09/29 05:43:57;;;;;;;22.70;11.77;;;;;;;12.61;100.00;101037.40;1488604;87;21455;-82
2023/09/29 05:46:23;;;;;;;19.40;11.50;;;;;;;12.64;100.00;101041.09;1469259;87;21510;-85
2023/09/29 05:48:49;;;;;;;22.83;10.47;;;;;;;12.70;100.00;101046.80;1464467;87;21382;-84
2023/09/29 05:51:15;;;;;;;24.80;11.43;;;;;;;12.74;100.00;101042.86;1484185;87;21514;-82
2023/09/29 05:53:41;;;;;;;25.70;12.47;;;;;;;12.81;100.00;101053.26;1468013;87;21307;-84
2023/09/29 05:56:08;;;;;;;19.20;10.60;;;;;;;12.89;100.00;101053.37;1485044;87;21367;-83
2023/09/29 05:58:36;;;;;;;17.27;10.77;;;;;;;13.04;100.00;101053.20;1472113;87;22410;-84
2023/09/29 06:01:13;;;;;;;17.03;11.63;;;;;;;13.14;100.00;101051.81;1483114;87;21418;-87
2023/09/29 06:03:44;;;;;;;20.83;12.07;;;;;;;13.24;100.00;101051.77;1486710;87;22357;-87
2023/09/29 06:06:09;;;;;;;22.77;12.50;;;;;;;13.32;100.00;101047.88;1479670;87;22334;-86
2023/09/29 06:08:36;;;;;;;27.37;12.97;;;;;;;13.40;100.00;101045.30;1483487;87;21507;-87
2023/09/29 06:11:04;;;;;;;23.70;11.80;;;;;;;13.49;100.00;101052.40;1481815;87;21382;-86
2023/09/29 06:13:30;;;;;;;19.07;11.77;;;;;;;13.63;100.00;101052.84;1486802;87;21501;-84
2023/09/29 06:15:57;;;;;;;18.80;11.33;;;;;;;13.80;100.00;101059.98;1479101;87;22215;-82
2023/09/29 06:18:26;;;;;;;16.47;10.77;;;;;;;13.93;100.00;101059.10;1486445;87;21514;-81
2023/09/29 06:20:52;;;;;;;20.23;12.40;;;;;;;14.05;100.00;101066.84;1477606;87;21256;-84
2023/09/29 06:23:18;;;;;;;22.90;13.50;;;;;;;14.19;100.00;101060.45;1478384;87;21537;-82
2023/09/29 06:25:44;;;;;;;18.77;12.03;;;;;;;14.33;100.00;101063.05;1477889;87;22225;-82
2023/09/29 06:28:11;;;;;;;25.87;11.97;;;;;;;14.46;100.00;101071.94;1486224;87;22439;-86
2023/09/29 06:30:37;;;;;;;20.80;11.73;;;;;;;14.59;100.00;101070.23;1484843;87;21331;-85
2023/09/29 06:33:03;;;;;;;19.20;10.80;;;;;;;14.73;100.00;101074.11;1486725;87;21374;-82
2023/09/29 06:35:31;;;;;;;14.50;10.77;;;;;;;14.84;100.00;101076.00;1487508;87;22263;-87
2023/09/29 06:37:57;;;;;;;29.13;12.80;;;;;;;14.91;100.00;101074.05;1484162;87;21454;-87
2023/09/29 06:40:23;;;;;;;18.93;12.07;;;;;;;15.07;100.00;101076.77;1479532;87;22046;-87
2023/09/29 06:42:49;;;;;;;16.30;11.13;;;;;;;15.22;100.00;101077.84;1464939;87;21426;-86
2023/09/29 06:45:15;;;;;;;22.07;11.23;;;;;;;15.38;100.00;101074.86;1480368;87;22328;-87
2023/09/29 06:47:42;;;;;;;22.63;10.73;;;;;;;15.47;100.00;101076.55;1460802;87;21375;-87
2023/09/29 06:54:49;;;;;;;21.15;10.53;;;;;;;15.71;100.00;101079.30;1477853;87;21396;-86
2023/09/29 06:57:16;;;;;;;17.37;11.03;;;;;;;15.93;100.00;101084.46;1482230;87;21478;-86
2023/09/29 06:59:42;;;;;;;20.10;11.63;;;;;;;16.13;100.00;101084.13;1485100;87;22443;-86
2023/09/29 07:02:09;;;;;;;17.07;11.77;;;;;;;16.23;100.00;101089.64;1485388;87;22254;-87
2023/09/29 07:04:35;;;;;;;21.30;11.70;;;;;;;16.34;100.00;101088.95;1484274;87;22247;-87
2023/09/29 07:07:01;;;;;;;21.97;10.70;;;;;;;16.42;100.00;101088.94;1458695;87;21448;-86
2023/09/29 07:09:28;;;;;;;15.70;10.57;;;;;;;16.51;100.00;101087.91;1484406;87;21375;-88
2023/09/29 07:11:55;;;;;;;19.90;10.83;;;;;;;16.63;100.00;101088.37;1465145;87;22820;-88
2023/09/29 07:14:21;;;;;;;23.00;12.30;;;;;;;16.79;100.00;101089.71;1487727;87;22276;-90
2023/09/29 07:16:49;;;;;;;19.80;11.07;;;;;;;16.93;100.00;101088.16;1486251;87;21530;-92
2023/09/29 07:19:15;;;;;;;16.70;12.13;;;;;;;17.03;100.00;101091.48;1485726;87;21375;-90
2023/09/29 07:21:41;;;;;;;15.60;11.80;;;;;;;17.23;100.00;101085.69;1486003;87;21500;-85
2023/09/29 07:24:08;;;;;;;27.07;10.73;;;;;;;17.43;100.00;101088.23;1481668;87;22247;-79
2023/09/29 07:26:36;;;;;;;15.83;10.90;;;;;;;17.49;100.00;101087.56;1488015;87;21374;-81
2023/09/29 07:29:04;;;;;;;14.33;9.87;;;;;;;17.71;100.00;101077.03;1485172;87;21427;-81
2023/09/29 07:31:38;;;;;;;15.72;10.35;;;;;;;17.93;100.00;101078.91;1487830;87;22413;-81
2023/09/29 07:34:04;;;;;;;19.57;11.63;;;;;;;18.18;100.00;101081.36;1486317;87;21360;-82
2023/09/29 07:36:33;;;;;;;16.82;12.10;;;;;;;18.39;100.00;101080.67;1479877;87;21478;-82
2023/09/29 07:38:59;;;;;;;18.50;11.38;;;;;;;18.52;100.00;101078.17;1481522;87;21500;-82
2023/09/29 07:41:25;;;;;;;20.75;14.00;;;;;;;18.56;100.00;101078.63;1485969;87;22173;-82
2023/09/29 07:43:52;;;;;;;17.37;11.25;;;;;;;18.63;100.00;101082.25;1482076;87;21358;-82
2023/09/29 07:46:20;;;;;;;21.73;11.25;;;;;;;18.80;100.00;101083.77;1486043;87;21551;-83
2023/09/29 07:48:46;;;;;;;17.17;10.58;;;;;;;19.02;100.00;101083.34;1482317;87;21853;-83
2023/09/29 07:51:12;;;;;;;19.27;12.58;;;;;;;19.25;100.00;101079.18;1485156;87;21381;-83
2023/09/29 07:53:38;;;;;;;16.65;12.33;;;;;;;19.46;100.00;101078.89;1483598;87;21552;-82
2023/09/29 07:56:04;;;;;;;17.75;12.50;;;;;;;19.63;100.00;101092.39;1463598;87;21411;-83
2023/09/29 07:58:31;;;;;;;25.08;11.95;;;;;;;19.78;100.00;101089.16;1486966;87;22417;-81
2023/09/29 08:00:57;;;;;;;21.45;12.00;;;;;;;19.76;100.00;101092.53;1485153;87;21308;-83
2023/09/29 08:03:23;;;;;;;22.22;13.50;;;;;;;19.78;100.00;101082.44;1483891;87;21671;-85
2023/09/29 08:05:51;;;;;;;17.85;12.10;;;;;;;19.84;100.00;101083.02;1482345;87;21471;-81
2023/09/29 08:08:17;;;;;;;19.65;11.97;;;;;;;20.02;100.00;101086.60;1468906;87;21485;-84
2023/09/29 08:10:44;;;;;;;22.02;11.33;;;;;;;20.22;100.00;101086.73;1487398;87;21404;-82
2023/09/29 08:13:10;;;;;;;30.82;13.08;;;;;;;20.37;100.00;101084.46;1470225;87;21547;-82
2023/09/29 08:15:36;;;;;;;21.52;12.43;;;;;;;20.51;100.00;101084.38;1467042;87;21397;-83
2023/09/29 08:18:02;;;;;;;15.13;10.00;;;;;;;20.55;100.00;101080.81;1486433;87;21405;-83
2023/09/29 08:20:28;;;;;;;16.07;10.78;;;;;;;20.55;100.00;101080.81;1484263;87;21389;-82
2023/09/29 08:22:54;;;;;;;22.62;10.13;;;;;;;20.54;100.00;101085.85;1496524;87;22372;-82
2023/09/29 08:25:20;;;;;;;21.10;10.00;;;;;;;20.76;100.00;101070.99;1490292;87;21596;-82
2023/09/29 08:27:46;;;;;;;18.55;11.25;;;;;;;20.96;100.00;101086.20;1488626;87;21426;-84
2023/09/29 08:30:13;;;;;;;21.87;11.28;;;;;;;20.96;100.00;101086.20;1483266;87;21367;-83
2023/09/29 08:32:41;;;;;;;18.40;11.10;;;;;;;21.03;100.00;101075.48;1491163;87;21499;-83
2023/09/29 08:35:12;;;;;;;19.48;11.33;;;;;;;21.16;100.00;101084.11;1483154;87;21308;-77
2023/09/29 08:37:36;;;;;;;24.02;11.85;;;;;;;21.22;100.00;101069.02;1488063;87;22248;-77
2023/09/29 08:40:03;;;;;;;14.33;9.85;;;;;;;21.28;100.00;101073.59;1487039;87;21404;-77
2023/09/29 08:42:37;;;;;;;23.02;10.35;;;;;;;21.35;100.00;101074.45;1480388;87;21359;-77
2023/09/29 08:45:13;;;;;;;14.65;11.30;;;;;;;21.41;100.00;101077.71;1485351;87;22257;-77
2023/09/29 08:47:40;;;;;;;19.32;10.35;;;;;;;21.56;100.00;101073.49;1487231;87;21440;-76
2023/09/29 08:50:11;;;;;;;20.80;10.35;;;;;;;21.75;100.00;101074.54;1481346;87;21503;-77
2023/09/29 08:52:39;;;;;;;24.67;10.43;;;;;;;21.74;100.00;101072.89;1481453;87;22196;-76
2023/09/29 08:55:07;;;;;;;19.15;9.78;;;;;;;21.88;100.00;101069.17;1484288;87;22320;-77
2023/09/29 08:57:34;;;;;;;24.10;10.53;;;;;;;22.00;100.00;101066.16;1462434;87;22891;-77
2023/09/29 09:00:01;;;;;;;19.67;10.15;;;;;;;22.11;100.00;101065.23;1485429;87;21463;-77
2023/09/29 09:02:28;;;;;;;16.90;9.85;;;;;;;22.29;100.00;101064.92;1483373;87;21307;-77
2023/09/29 09:04:54;;;;;;;14.13;9.90;;;;;;;22.49;100.00;101066.24;1489586;87;21397;-77
2023/09/29 09:07:21;;;;;;;14.93;10.20;;;;;;;22.63;100.00;101070.27;1465140;87;21448;-77
2023/09/29 09:09:57;;;;;;;22.22;9.85;;;;;;;22.74;100.00;101061.53;1480147;87;21427;-75
2023/09/29 09:12:34;;;;;;;13.20;9.73;;;;;;;22.88;100.00;101065.84;1486621;87;22575;-76
2023/09/29 09:15:05;;;;;;;19.50;10.48;;;;;;;22.95;100.00;101063.95;1471591;87;21285;-77
2023/09/29 09:17:35;;;;;;;17.95;8.90;;;;;;;23.04;100.00;101067.77;1477265;87;22283;-77
2023/09/29 09:20:02;;;;;;;16.50;10.20;;;;;;;23.19;100.00;101062.41;1494659;87;22424;-76
2023/09/29 09:22:32;;;;;;;21.40;10.55;;;;;;;23.25;100.00;101060.72;1485939;87;21323;-77
2023/09/29 09:25:04;;;;;;;15.80;9.00;;;;;;;23.41;100.00;101062.89;1461900;87;21461;-76
2023/09/29 09:27:41;;;;;;;23.67;9.80;;;;;;;23.57;100.00;101059.39;1487997;87;22343;-77
2023/09/29 09:30:23;;;;;;;23.50;8.43;;;;;;;23.72;100.00;101059.93;1486967;87;21680;-77
2023/09/29 09:32:50;;;;;;;17.05;9.03;;;;;;;23.78;100.00;101057.70;1482715;87;22335;-76
2023/09/29 09:35:27;;;;;;;15.38;8.48;;;;;;;23.90;100.00;101058.34;1482709;87;21382;-77
2023/09/29 09:37:54;;;;;;;10.88;8.00;;;;;;;23.99;100.00;101051.60;1486913;87;21419;-77
2023/09/29 09:40:26;;;;;;;15.10;7.70;;;;;;;23.90;100.00;101056.98;1492652;87;21359;-77
2023/09/29 09:43:03;;;;;;;20.77;8.53;;;;;;;23.87;100.00;101049.61;1496393;87;21396;-77
2023/09/29 09:45:40;;;;;;;19.35;7.95;;;;;;;24.06;100.00;101053.73;1491879;87;22023;-77
2023/09/29 09:48:14;;;;;;;;;;;;;;;24.28;100.00;101059.05;1483459;87;21655;-77
2023/09/29 09:50:43;;;;;;;15.38;8.90;;;;;;;24.51;100.00;101054.88;1488393;87;20341;-77
2023/09/29 09:53:13;;;;;;;15.53;8.48;;;;;;;24.59;100.00;101056.47;1484014;87;22300;-77
2023/09/29 09:56:03;;;;;;;12.13;8.13;;;;;;;24.53;99.43;101052.78;1479263;87;22410;-77
2023/09/29 09:58:31;;;;;;;12.30;7.25;;;;;;;24.61;94.11;101055.19;1477075;87;22431;-77
2023/09/29 10:00:58;;;;;;;13.98;8.03;;;;;;;24.80;99.23;101055.17;1487119;87;21497;-76
2023/09/29 10:03:27;;;;;;;15.05;7.80;;;;;;;24.94;84.46;101056.14;1479192;87;22474;-77
2023/09/29 10:05:54;;;;;;;15.48;8.43;;;;;;;25.03;85.40;101048.56;1488914;87;21633;-77
2023/09/29 10:08:30;;;;;;;19.02;7.50;;;;;;;25.06;83.99;101052.66;1479744;87;22366;-77
2023/09/29 10:11:12;;;;;;;12.28;7.70;;;;;;;25.02;79.43;101041.47;1481777;87;21440;-77
2023/09/29 10:13:42;;;;;;;12.65;7.42;;;;;;;25.17;83.07;101043.27;1485219;87;21353;-77
2023/09/29 10:16:21;;;;;;;12.03;7.95;;;;;;;25.27;81.99;101040.55;1479603;87;22509;-83
2023/09/29 10:18:59;;;;;;;14.95;7.35;;;;;;;25.46;83.43;101039.42;1486355;87;22224;-83
2023/09/29 10:21:33;;;;;;;14.35;8.18;;;;;;;25.66;82.25;101036.41;1482174;87;21540;-83
2023/09/29 10:24:00;;;;;;;14.30;6.92;;;;;;;25.87;83.06;101035.89;1484079;87;21426;-83
2023/09/29 10:26:23;;;;;;;14.15;7.12;;;;;;;26.14;82.46;101037.31;1486755;87;22327;-86
2023/09/29 10:29:08;;;;;;;11.78;7.30;;;;;;;26.35;81.41;101029.92;1486800;87;21353;-83
2023/09/29 10:31:30;;;;;;;13.85;7.67;;;;;;;26.53;70.28;101028.47;1491043;87;22342;-82
2023/09/29 10:33:58;;;;;;;13.58;8.33;;;;;;;26.67;61.41;101031.75;1484852;87;21397;-83
2023/09/29 10:36:28;;;;;;;14.45;6.53;;;;;;;26.81;57.15;101024.67;1482280;87;21337;-83
2023/09/29 10:38:59;;;;;;;15.10;7.17;;;;;;;26.87;54.73;101023.16;1487863;87;21390;-83
2023/09/29 10:41:31;;;;;;;15.38;7.95;;;;;;;27.04;54.40;101021.86;1484190;87;21889;-83
2023/09/29 10:44:00;;;;;;;16.32;7.95;;;;;;;27.07;52.69;101019.20;1484210;87;21449;-83
2023/09/29 10:46:28;;;;;;;9.10;7.40;;;;;;;26.96;51.97;101019.02;1482933;87;21507;-83
2023/09/29 10:48:54;;;;;;;18.80;7.70;;;;;;;26.91;52.52;101008.05;1482505;87;21448;-84
2023/09/29 10:51:27;;;;;;;14.83;7.45;;;;;;;26.96;50.93;101011.41;1495013;87;21448;-84
2023/09/29 10:53:55;;;;;;;21.25;8.33;;;;;;;27.08;50.82;101010.00;1486559;87;22550;-82
2023/09/29 10:56:24;;;;;;;16.27;8.05;;;;;;;26.97;50.43;101001.65;1489943;87;21381;-83
2023/09/29 10:58:52;;;;;;;16.40;7.60;;;;;;;27.06;50.15;101002.08;1482854;87;21440;-83
2023/09/29 11:01:27;;;;;;;17.75;7.85;;;;;;;26.95;49.75;101002.41;1482130;87;22313;-83
2023/09/29 11:03:52;;;;;;;16.85;7.72;;;;;;;26.87;47.02;100996.01;1489555;87;21404;-83
2023/09/29 11:06:18;;;;;;;14.18;7.47;;;;;;;26.98;47.73;100994.31;1484532;87;21374;-82
2023/09/29 11:08:56;;;;;;;16.07;7.97;;;;;;;27.20;47.35;100984.44;1484093;87;22490;-83
2023/09/29 11:11:36;;;;;;;17.02;7.28;;;;;;;27.43;47.65;100989.45;1481707;87;22217;-84
2023/09/29 11:14:05;;;;;;;10.55;7.97;;;;;;;27.55;45.77;100983.40;1488879;87;21411;-82